Terminal Aerodrome Forecast
Issued by NWS Bismarck, ND

Home | Current Version | Previous Version | Graphics & Text | Print | Product List | Glossary On
Versions: 1 2 3 4 5 6 7 8 9 10 11 12 13 14 15 16 17 18 19 20 21 22
000
FTUS43 KBIS 300300 AAA
TAFBIS
TAF AMD
KBIS 300312Z 3003/3024 21004KT P6SM VCFG SKC
      TEMPO 3003/3006 2SM BR
     FM300600 31009KT P6SM SCT250
     FM301200 35012KT P6SM BKN015
     FM302100 01009KT P6SM FEW035=

USA.gov is the U.S. government's official web portal to all federal, state and local government web resources and services.